createdAt,value
2019-01-10T00:05:35.482Z,2.39
2019-01-10T00:11:30.450Z,2.94
2019-01-10T00:17:25.458Z,3.35
2019-01-10T00:23:20.475Z,3.81
2019-01-10T00:29:15.513Z,3.42
2019-01-10T00:35:10.473Z,2.49
2019-01-10T00:41:05.456Z,2.22
2019-01-10T00:47:00.518Z,2.68
2019-01-10T00:52:55.485Z,2.71
2019-01-10T00:58:50.464Z,2.9
2019-01-10T01:04:45.539Z,2.57
2019-01-10T01:10:40.485Z,5.17
2019-01-10T01:16:35.481Z,5.89
2019-01-10T01:22:30.509Z,8.75
2019-01-10T01:28:25.505Z,7.11
2019-01-10T01:34:20.483Z,5.49
2019-01-10T01:40:15.485Z,3.47
2019-01-10T01:46:10.501Z,2.95
2019-01-10T01:52:05.488Z,3.06
2019-01-10T01:58:00.526Z,3.01
2019-01-10T02:03:55.504Z,2.89
2019-01-10T02:09:50.515Z,2.76
2019-01-10T02:15:45.499Z,2.73
2019-01-10T02:21:40.557Z,2.48
2019-01-10T02:27:35.548Z,2.7
2019-01-10T02:33:30.573Z,3.1
2019-01-10T02:39:25.546Z,2.9
2019-01-10T02:45:20.531Z,3.06
2019-01-10T02:51:15.630Z,2.72
2019-01-10T02:57:10.568Z,3.19
2019-01-10T03:03:05.570Z,3.05
2019-01-10T03:09:00.533Z,3.08
2019-01-10T03:14:55.576Z,3.26
2019-01-10T03:20:52.569Z,3.24
2019-01-10T03:26:45.575Z,3.55
2019-01-10T03:32:40.615Z,3.51
2019-01-10T03:38:35.592Z,3.6
2019-01-10T03:44:34.151Z,3.22
2019-01-10T03:50:25.579Z,3.55
2019-01-10T03:56:20.591Z,3.41
2019-01-10T04:02:15.573Z,3.4
2019-01-10T04:08:10.593Z,3.54
2019-01-10T04:14:05.609Z,3.53
2019-01-10T04:20:00.604Z,3.8
2019-01-10T04:25:55.570Z,3.91
2019-01-10T04:31:50.609Z,3.82
2019-01-10T04:37:45.620Z,4.19
2019-01-10T04:43:40.574Z,3.52
2019-01-10T04:49:35.591Z,3.4
2019-01-10T04:55:30.696Z,4.74
2019-01-10T05:01:25.589Z,3.84
2019-01-10T05:07:20.619Z,7.89
2019-01-10T05:13:15.637Z,6.34
2019-01-10T05:19:10.625Z,6.04
2019-01-10T05:25:05.655Z,10.88
2019-01-10T05:31:00.608Z,8.92
2019-01-10T05:36:55.610Z,8.77
2019-01-10T05:42:50.631Z,15.39
2019-01-10T05:48:46.932Z,5.55
2019-01-10T05:54:40.648Z,5.92
2019-01-10T06:00:35.667Z,4.44
2019-01-10T06:06:30.616Z,5.92
2019-01-10T06:12:25.691Z,7.58
2019-01-10T06:18:20.634Z,8.67
2019-01-10T06:24:15.661Z,7.2
2019-01-10T06:30:10.657Z,5.35
2019-01-10T06:36:05.631Z,8.45
2019-01-10T06:42:00.651Z,6.81
2019-01-10T06:47:55.635Z,5.81
2019-01-10T06:53:50.668Z,4.82
2019-01-10T06:59:45.647Z,4.8
2019-01-10T07:05:40.690Z,5.29
2019-01-10T07:11:35.664Z,5.64
2019-01-10T07:17:30.687Z,5.17
2019-01-10T07:23:25.693Z,4.32
2019-01-10T07:29:20.679Z,5.17
2019-01-10T07:35:15.666Z,3.79
2019-01-10T07:41:10.667Z,8.58
2019-01-10T07:47:05.692Z,6.39
2019-01-10T07:53:00.794Z,7.24
2019-01-10T07:58:55.702Z,10.82
2019-01-10T08:04:50.688Z,13.05
2019-01-10T08:10:45.684Z,10.62
2019-01-10T08:16:40.689Z,13.17
2019-01-10T08:22:35.679Z,14.77
2019-01-10T08:28:30.719Z,14.48
2019-01-10T08:34:25.695Z,17.5
2019-01-10T08:40:20.690Z,18.21
2019-01-10T08:46:15.693Z,29
2019-01-10T08:52:10.708Z,26.98
2019-01-10T08:58:05.740Z,36.5
2019-01-10T09:04:00.720Z,43.96
2019-01-10T09:09:55.750Z,29.36
2019-01-10T09:15:50.735Z,44.72
2019-01-10T09:21:45.736Z,32.62
2019-01-10T09:27:40.749Z,22.52
2019-01-10T09:33:35.720Z,26.05
2019-01-10T09:39:30.759Z,28.97
2019-01-10T09:45:25.764Z,75.32
2019-01-10T09:51:20.738Z,54.17
2019-01-10T09:57:15.767Z,47.96
2019-01-10T10:03:10.737Z,42.02
2019-01-10T10:09:05.784Z,39.69
2019-01-10T10:15:00.746Z,36.28
2019-01-10T10:20:55.749Z,27.17
2019-01-10T10:26:50.742Z,27.31
2019-01-10T10:32:45.767Z,23.92
2019-01-10T10:38:40.735Z,36.23
2019-01-10T10:44:35.762Z,23.9
2019-01-10T10:50:30.795Z,14.95
2019-01-10T10:56:25.787Z,15.37
2019-01-10T11:02:20.778Z,7.85
2019-01-10T11:08:15.779Z,11.5
2019-01-10T11:14:10.786Z,3.73
2019-01-10T11:20:05.810Z,4.07
2019-01-10T11:26:00.785Z,3.69
2019-01-10T11:31:55.793Z,4.45
2019-01-10T11:37:50.788Z,9.53
2019-01-10T11:43:45.788Z,3.58
2019-01-10T11:49:40.794Z,3.29
2019-01-10T11:55:35.849Z,4.21
2019-01-10T12:01:30.805Z,8.61
2019-01-10T12:07:25.812Z,2.86
2019-01-10T12:13:20.854Z,5.15
2019-01-10T12:19:15.834Z,3.04
2019-01-10T12:25:10.845Z,3.86
2019-01-10T12:31:05.827Z,9.95
2019-01-10T12:37:00.848Z,6.15
2019-01-10T12:42:55.811Z,2.53
2019-01-10T12:48:50.830Z,4.7
2019-01-10T12:54:45.861Z,1.92
2019-01-10T13:00:40.828Z,6.1
2019-01-10T13:06:35.837Z,14.65
2019-01-10T13:12:30.834Z,9.31
2019-01-10T13:18:25.849Z,3.1
2019-01-10T13:24:20.866Z,5.47
2019-01-10T13:30:15.853Z,8.2
2019-01-10T13:36:10.890Z,1.72
2019-01-10T13:42:05.860Z,3.24
2019-01-10T13:48:00.889Z,2.44
2019-01-10T13:53:55.848Z,3.98
2019-01-10T13:59:50.880Z,4.15
2019-01-10T14:05:45.867Z,1.86
2019-01-10T14:11:40.855Z,2.93
2019-01-10T14:17:35.893Z,5.13
2019-01-10T14:23:30.943Z,1.15
2019-01-10T14:29:25.902Z,1.72
2019-01-10T14:35:20.887Z,3.13
2019-01-10T14:41:15.919Z,1.17
2019-01-10T14:47:10.893Z,1.12
2019-01-10T14:53:05.920Z,1.1
2019-01-10T14:59:00.897Z,1.13
2019-01-10T15:04:55.907Z,0.91
2019-01-10T15:10:50.893Z,1.87
2019-01-10T15:16:45.941Z,1.11
2019-01-10T15:22:40.939Z,1.59
2019-01-10T15:28:35.908Z,1.49
2019-01-10T15:34:30.918Z,1.52
2019-01-10T15:40:25.936Z,2.36
2019-01-10T15:46:20.933Z,9.17
2019-01-10T15:52:15.922Z,5.22
2019-01-10T15:58:10.927Z,4.92
2019-01-10T16:04:07.263Z,4.95
2019-01-10T16:10:00.951Z,6.47
2019-01-10T16:15:55.939Z,3.59
2019-01-10T16:21:50.935Z,2.34
2019-01-10T16:27:45.951Z,10.29
2019-01-10T16:33:41.005Z,6.87
2019-01-10T16:39:35.981Z,8.34
2019-01-10T16:45:31.002Z,10.44
2019-01-10T16:51:25.944Z,11.39
2019-01-10T16:57:20.950Z,23.05
2019-01-10T17:03:15.969Z,6.47
2019-01-10T17:09:10.988Z,5.48
2019-01-10T17:15:05.960Z,8.4
2019-01-10T17:21:00.973Z,8.87
2019-01-10T17:26:56.000Z,11.48
2019-01-10T17:32:50.968Z,11.74
2019-01-10T17:38:45.989Z,12.86
2019-01-10T17:44:40.972Z,8.48
2019-01-10T17:50:36.019Z,11.47
2019-01-10T17:56:31.076Z,5.87
2019-01-10T18:02:25.991Z,6.48
2019-01-10T18:08:20.986Z,9.92
2019-01-10T18:14:16.029Z,6.88
2019-01-10T18:20:11.010Z,9.74
2019-01-10T18:26:06.033Z,12.81
2019-01-10T18:32:00.997Z,10.58
2019-01-10T18:37:56.038Z,13.97
2019-01-10T18:43:51.009Z,13.76
2019-01-10T18:49:46.056Z,20.8
2019-01-10T18:55:41.035Z,13.6
2019-01-10T19:01:36.012Z,20.26
2019-01-10T19:07:31.035Z,11
2019-01-10T19:13:26.726Z,12.73
2019-01-10T19:19:21.025Z,8.98
2019-01-10T19:25:16.032Z,4.83
2019-01-10T19:31:11.045Z,6.45
2019-01-10T19:37:06.027Z,14.26
2019-01-10T19:43:01.037Z,13.4
2019-01-10T19:48:56.088Z,14.43
2019-01-10T19:54:51.061Z,15.86
2019-01-10T20:00:46.072Z,19.3
2019-01-10T20:06:41.037Z,19.4
2019-01-10T20:12:36.060Z,16.07
2019-01-10T20:18:31.063Z,16.26
2019-01-10T20:24:26.071Z,24.9
2019-01-10T20:30:21.126Z,25.58
2019-01-10T20:36:16.080Z,24.68
2019-01-10T20:42:11.076Z,27.73
2019-01-10T20:48:06.105Z,25.02
2019-01-10T20:54:01.119Z,21.39
2019-01-10T20:59:56.099Z,16.01
2019-01-10T21:05:51.098Z,23.5
2019-01-10T21:11:46.107Z,24.64
2019-01-10T21:17:41.161Z,16.88
2019-01-10T21:23:36.083Z,10.18
2019-01-10T21:29:31.111Z,9.56
2019-01-10T21:35:26.128Z,8.99
2019-01-10T21:41:21.097Z,8.74
2019-01-10T21:47:16.114Z,11.72
2019-01-10T21:53:11.136Z,8.96
2019-01-10T21:59:06.113Z,9.39
2019-01-10T22:05:01.152Z,8.04
2019-01-10T22:10:56.116Z,6.88
2019-01-10T22:16:51.124Z,6.4
2019-01-10T22:22:46.158Z,11.18
2019-01-10T22:28:41.121Z,17
2019-01-10T22:34:36.112Z,15.42
2019-01-10T22:40:31.133Z,16.21
2019-01-10T22:46:26.138Z,13.71
2019-01-10T22:52:21.135Z,8.96
2019-01-10T22:58:16.190Z,7.37
2019-01-10T23:04:11.158Z,5.45
2019-01-10T23:10:06.146Z,5.04
2019-01-10T23:16:01.153Z,7.67
2019-01-10T23:21:56.218Z,10.28
2019-01-10T23:27:51.148Z,12.68
2019-01-10T23:33:46.164Z,10.02
2019-01-10T23:39:41.154Z,9.61
2019-01-10T23:45:36.173Z,7.7
2019-01-10T23:51:31.203Z,5.74
2019-01-10T23:57:26.159Z,3.62
